sensor_id;sensor_type;location;lat;lon;timestamp;pressure;altitude;pressure_sealevel;temperature;humidity
68433;BME280;55412;51.350;17.056;2024-03-08T00:01:35;101080.53;;;-2.79;75.34
68433;BME280;55412;51.350;17.056;2024-03-08T00:04:01;101089.69;;;-2.81;75.58
68433;BME280;55412;51.350;17.056;2024-03-08T00:06:27;101087.75;;;-2.85;75.48
68433;BME280;55412;51.350;17.056;2024-03-08T00:08:52;101087.44;;;-2.90;75.66
68433;BME280;55412;51.350;17.056;2024-03-08T00:11:18;101085.50;;;-2.94;75.82
68433;BME280;55412;51.350;17.056;2024-03-08T00:13:44;101081.19;;;-2.95;76.04
68433;BME280;55412;51.350;17.056;2024-03-08T00:16:10;101080.13;;;-2.98;75.76
68433;BME280;55412;51.350;17.056;2024-03-08T00:18:36;101078.28;;;-3.01;76.29
68433;BME280;55412;51.350;17.056;2024-03-08T00:21:02;101077.22;;;-3.04;75.98
68433;BME280;55412;51.350;17.056;2024-03-08T00:23:27;101077.91;;;-3.07;75.71
68433;BME280;55412;51.350;17.056;2024-03-08T00:25:53;101075.94;;;-3.11;76.02
68433;BME280;55412;51.350;17.056;2024-03-08T00:28:21;101075.84;;;-3.13;75.88
68433;BME280;55412;51.350;17.056;2024-03-08T00:30:47;101076.63;;;-3.14;76.24
68433;BME280;55412;51.350;17.056;2024-03-08T00:33:12;101074.75;;;-3.16;76.08
68433;BME280;55412;51.350;17.056;2024-03-08T00:35:38;101073.00;;;-3.17;75.91
68433;BME280;55412;51.350;17.056;2024-03-08T00:38:03;101072.91;;;-3.19;76.20
68433;BME280;55412;51.350;17.056;2024-03-08T00:40:29;101073.59;;;-3.21;76.25
68433;BME280;55412;51.350;17.056;2024-03-08T00:42:55;101076.78;;;-3.24;76.47
68433;BME280;55412;51.350;17.056;2024-03-08T00:45:20;101076.53;;;-3.28;76.27
68433;BME280;55412;51.350;17.056;2024-03-08T00:47:47;101077.00;;;-3.34;76.72
68433;BME280;55412;51.350;17.056;2024-03-08T00:50:13;101075.25;;;-3.35;76.34
68433;BME280;55412;51.350;17.056;2024-03-08T00:52:38;101084.31;;;-3.39;76.68
68433;BME280;55412;51.350;17.056;2024-03-08T00:55:04;101074.66;;;-3.44;76.46
68433;BME280;55412;51.350;17.056;2024-03-08T00:57:30;101061.84;;;-3.46;77.14
68433;BME280;55412;51.350;17.056;2024-03-08T00:59:55;101064.69;;;-3.41;76.83
68433;BME280;55412;51.350;17.056;2024-03-08T01:02:21;101061.47;;;-3.39;76.78
68433;BME280;55412;51.350;17.056;2024-03-08T01:04:48;101059.81;;;-3.38;77.30
68433;BME280;55412;51.350;17.056;2024-03-08T01:07:14;101057.09;;;-3.41;76.98
68433;BME280;55412;51.350;17.056;2024-03-08T01:09:40;101055.25;;;-3.44;77.27
68433;BME280;55412;51.350;17.056;2024-03-08T01:12:06;101050.94;;;-3.45;77.41
68433;BME280;55412;51.350;17.056;2024-03-08T01:14:33;101048.41;;;-3.45;77.39
68433;BME280;55412;51.350;17.056;2024-03-08T01:16:59;101052.78;;;-3.42;77.26
68433;BME280;55412;51.350;17.056;2024-03-08T01:19:24;101052.56;;;-3.45;77.62
68433;BME280;55412;51.350;17.056;2024-03-08T01:21:50;101055.13;;;-3.45;77.07
68433;BME280;55412;51.350;17.056;2024-03-08T01:24:16;101048.97;;;-3.49;77.48
68433;BME280;55412;51.350;17.056;2024-03-08T01:26:42;101035.09;;;-3.54;76.88
68433;BME280;55412;51.350;17.056;2024-03-08T01:29:08;101041.94;;;-3.53;77.52
68433;BME280;55412;51.350;17.056;2024-03-08T01:31:34;101033.16;;;-3.58;77.32
68433;BME280;55412;51.350;17.056;2024-03-08T01:34:01;101039.78;;;-3.60;77.43
68433;BME280;55412;51.350;17.056;2024-03-08T01:36:27;101036.28;;;-3.62;77.49
68433;BME280;55412;51.350;17.056;2024-03-08T01:38:53;101038.63;;;-3.65;77.28
68433;BME280;55412;51.350;17.056;2024-03-08T01:41:18;101035.00;;;-3.69;77.13
68433;BME280;55412;51.350;17.056;2024-03-08T01:43:45;101037.25;;;-3.73;77.36
68433;BME280;55412;51.350;17.056;2024-03-08T01:46:12;101031.56;;;-3.69;77.67
68433;BME280;55412;51.350;17.056;2024-03-08T01:48:40;101018.97;;;-3.68;77.50
68433;BME280;55412;51.350;17.056;2024-03-08T01:51:07;101025.44;;;-3.73;77.47
68433;BME280;55412;51.350;17.056;2024-03-08T01:53:33;101020.66;;;-3.81;77.62
68433;BME280;55412;51.350;17.056;2024-03-08T01:56:00;101016.91;;;-3.86;77.64
68433;BME280;55412;51.350;17.056;2024-03-08T01:58:29;101020.03;;;-3.91;76.80
68433;BME280;55412;51.350;17.056;2024-03-08T02:00:56;101026.56;;;-3.94;77.08
68433;BME280;55412;51.350;17.056;2024-03-08T02:03:22;101020.41;;;-3.98;77.82
68433;BME280;55412;51.350;17.056;2024-03-08T02:05:48;101009.88;;;-4.04;77.60
68433;BME280;55412;51.350;17.056;2024-03-08T02:08:14;101014.81;;;-4.05;77.49
68433;BME280;55412;51.350;17.056;2024-03-08T02:10:41;101014.81;;;-4.05;78.07
68433;BME280;55412;51.350;17.056;2024-03-08T02:13:10;101011.22;;;-4.09;77.94
68433;BME280;55412;51.350;17.056;2024-03-08T02:15:55;101009.25;;;-4.13;77.87
68433;BME280;55412;51.350;17.056;2024-03-08T02:18:22;101007.28;;;-4.17;77.92
68433;BME280;55412;51.350;17.056;2024-03-08T02:20:49;101000.34;;;-4.20;78.09
68433;BME280;55412;51.350;17.056;2024-03-08T02:23:15;100998.44;;;-4.10;78.61
68433;BME280;55412;51.350;17.056;2024-03-08T02:25:40;100999.41;;;-4.08;78.44
68433;BME280;55412;51.350;17.056;2024-03-08T02:28:13;101012.50;;;-4.02;78.61
68433;BME280;55412;51.350;17.056;2024-03-08T02:30:39;101009.66;;;-4.07;78.35
68433;BME280;55412;51.350;17.056;2024-03-08T02:33:06;101004.16;;;-4.13;78.18
68433;BME280;55412;51.350;17.056;2024-03-08T02:35:32;101009.41;;;-4.23;77.53
68433;BME280;55412;51.350;17.056;2024-03-08T02:38:02;101009.19;;;-4.26;77.78
68433;BME280;55412;51.350;17.056;2024-03-08T02:40:29;100996.78;;;-4.35;78.11
68433;BME280;55412;51.350;17.056;2024-03-08T02:42:55;101003.84;;;-4.31;78.19
68433;BME280;55412;51.350;17.056;2024-03-08T02:45:20;101010.34;;;-4.34;78.19
68433;BME280;55412;51.350;17.056;2024-03-08T02:47:46;101007.59;;;-4.37;78.25
68433;BME280;55412;51.350;17.056;2024-03-08T02:50:15;101004.09;;;-4.39;78.39
68433;BME280;55412;51.350;17.056;2024-03-08T02:52:44;101013.09;;;-4.31;78.91
68433;BME280;55412;51.350;17.056;2024-03-08T02:55:11;100995.53;;;-4.28;78.35
68433;BME280;55412;51.350;17.056;2024-03-08T02:57:40;101000.06;;;-4.24;79.14
68433;BME280;55412;51.350;17.056;2024-03-08T03:00:07;100996.06;;;-4.21;78.97
68433;BME280;55412;51.350;17.056;2024-03-08T03:02:36;100997.06;;;-4.19;78.48
68433;BME280;55412;51.350;17.056;2024-03-08T03:05:03;100996.28;;;-4.18;79.11
68433;BME280;55412;51.350;17.056;2024-03-08T03:07:32;100990.34;;;-4.18;78.72
68433;BME280;55412;51.350;17.056;2024-03-08T03:09:59;100998.59;;;-4.21;79.03
68433;BME280;55412;51.350;17.056;2024-03-08T03:12:27;100994.22;;;-4.23;78.59
68433;BME280;55412;51.350;17.056;2024-03-08T03:14:52;100997.53;;;-4.24;79.06
68433;BME280;55412;51.350;17.056;2024-03-08T03:17:18;100992.03;;;-4.30;78.82
68433;BME280;55412;51.350;17.056;2024-03-08T03:19:45;100990.38;;;-4.30;79.22
68433;BME280;55412;51.350;17.056;2024-03-08T03:22:12;100998.66;;;-4.32;78.95
68433;BME280;55412;51.350;17.056;2024-03-08T03:24:38;100994.84;;;-4.39;78.58
68433;BME280;55412;51.350;17.056;2024-03-08T03:27:04;100987.69;;;-4.45;78.99
68433;BME280;55412;51.350;17.056;2024-03-08T03:29:39;100988.56;;;-4.44;78.58
68433;BME280;55412;51.350;17.056;2024-03-08T03:32:08;100993.66;;;-4.44;78.36
68433;BME280;55412;51.350;17.056;2024-03-08T03:34:34;100988.66;;;-4.42;79.21
68433;BME280;55412;51.350;17.056;2024-03-08T03:37:06;100986.81;;;-4.45;78.64
68433;BME280;55412;51.350;17.056;2024-03-08T03:39:38;100987.50;;;-4.48;79.47
68433;BME280;55412;51.350;17.056;2024-03-08T03:42:22;100993.22;;;-4.50;78.94
68433;BME280;55412;51.350;17.056;2024-03-08T03:44:49;100988.94;;;-4.51;78.49
68433;BME280;55412;51.350;17.056;2024-03-08T03:47:15;100986.31;;;-4.53;78.73
68433;BME280;55412;51.350;17.056;2024-03-08T03:49:41;100981.78;;;-4.57;78.97
68433;BME280;55412;51.350;17.056;2024-03-08T03:52:08;100983.25;;;-4.60;79.03
68433;BME280;55412;51.350;17.056;2024-03-08T03:54:34;100991.84;;;-4.58;79.32
68433;BME280;55412;51.350;17.056;2024-03-08T03:57:00;100991.56;;;-4.50;79.69
68433;BME280;55412;51.350;17.056;2024-03-08T03:59:26;100996.38;;;-4.41;79.85
68433;BME280;55412;51.350;17.056;2024-03-08T04:01:53;100987.53;;;-4.34;79.43
68433;BME280;55412;51.350;17.056;2024-03-08T04:04:20;100982.69;;;-4.31;79.87
68433;BME280;55412;51.350;17.056;2024-03-08T04:06:45;100988.53;;;-4.32;79.31
68433;BME280;55412;51.350;17.056;2024-03-08T04:09:11;100988.31;;;-4.35;79.65
68433;BME280;55412;51.350;17.056;2024-03-08T04:11:38;100995.72;;;-4.38;79.18
68433;BME280;55412;51.350;17.056;2024-03-08T04:14:04;100994.16;;;-4.36;79.14
68433;BME280;55412;51.350;17.056;2024-03-08T04:16:31;100991.72;;;-4.35;79.92
68433;BME280;55412;51.350;17.056;2024-03-08T04:18:59;100992.41;;;-4.37;79.05
68433;BME280;55412;51.350;17.056;2024-03-08T04:21:25;100987.16;;;-4.40;79.52
68433;BME280;55412;51.350;17.056;2024-03-08T04:23:51;100983.69;;;-4.41;79.67
68433;BME280;55412;51.350;17.056;2024-03-08T04:26:17;100978.63;;;-4.41;79.44
68433;BME280;55412;51.350;17.056;2024-03-08T04:28:43;100983.69;;;-4.41;80.06
68433;BME280;55412;51.350;17.056;2024-03-08T04:31:09;100988.66;;;-4.42;79.33
68433;BME280;55412;51.350;17.056;2024-03-08T04:33:35;100987.50;;;-4.48;79.31
68433;BME280;55412;51.350;17.056;2024-03-08T04:36:01;100978.44;;;-4.44;79.48
68433;BME280;55412;51.350;17.056;2024-03-08T04:38:29;100981.06;;;-4.42;79.48
68433;BME280;55412;51.350;17.056;2024-03-08T04:40:57;100966.34;;;-4.48;79.75
68433;BME280;55412;51.350;17.056;2024-03-08T04:43:23;100985.63;;;-4.50;79.73
68433;BME280;55412;51.350;17.056;2024-03-08T04:45:52;100987.19;;;-4.52;79.71
68433;BME280;55412;51.350;17.056;2024-03-08T04:48:19;100971.25;;;-4.63;79.34
68433;BME280;55412;51.350;17.056;2024-03-08T04:50:45;100980.72;;;-4.60;79.73
68433;BME280;55412;51.350;17.056;2024-03-08T04:53:11;100979.16;;;-4.58;79.30
68433;BME280;55412;51.350;17.056;2024-03-08T04:55:37;100980.38;;;-4.53;79.56
68433;BME280;55412;51.350;17.056;2024-03-08T04:58:03;100988.25;;;-4.49;80.03
68433;BME280;55412;51.350;17.056;2024-03-08T05:00:31;100973.75;;;-4.51;80.03
68433;BME280;55412;51.350;17.056;2024-03-08T05:02:58;100980.66;;;-4.49;80.18
68433;BME280;55412;51.350;17.056;2024-03-08T05:05:23;100992.78;;;-4.45;79.67
68433;BME280;55412;51.350;17.056;2024-03-08T05:07:50;100986.72;;;-4.47;80.15
68433;BME280;55412;51.350;17.056;2024-03-08T05:10:16;100985.84;;;-4.47;79.82
68433;BME280;55412;51.350;17.056;2024-03-08T05:12:43;100978.34;;;-4.46;79.40
68433;BME280;55412;51.350;17.056;2024-03-08T05:15:09;100980.09;;;-4.45;80.03
68433;BME280;55412;51.350;17.056;2024-03-08T05:17:35;100969.00;;;-4.47;80.00
68433;BME280;55412;51.350;17.056;2024-03-08T05:20:01;100975.72;;;-4.47;79.84
68433;BME280;55412;51.350;17.056;2024-03-08T05:22:27;100984.06;;;-4.48;79.79
68433;BME280;55412;51.350;17.056;2024-03-08T05:24:53;100979.31;;;-4.43;79.91
68433;BME280;55412;51.350;17.056;2024-03-08T05:27:19;100993.75;;;-4.42;79.84
68433;BME280;55412;51.350;17.056;2024-03-08T05:29:44;100977.16;;;-4.51;79.48
68433;BME280;55412;51.350;17.056;2024-03-08T05:32:11;100987.38;;;-4.49;79.00
68433;BME280;55412;51.350;17.056;2024-03-08T05:34:37;100985.44;;;-4.53;79.44
68433;BME280;55412;51.350;17.056;2024-03-08T05:37:03;100979.50;;;-4.54;79.48
68433;BME280;55412;51.350;17.056;2024-03-08T05:39:29;100970.53;;;-4.49;80.04
68433;BME280;55412;51.350;17.056;2024-03-08T05:41:54;100980.19;;;-4.43;79.35
68433;BME280;55412;51.350;17.056;2024-03-08T05:44:21;100987.16;;;-4.40;79.68
68433;BME280;55412;51.350;17.056;2024-03-08T05:46:47;100974.25;;;-4.43;79.56
68433;BME280;55412;51.350;17.056;2024-03-08T05:49:13;100978.19;;;-4.35;79.78
68433;BME280;55412;51.350;17.056;2024-03-08T05:51:39;100974.41;;;-4.29;79.87
68433;BME280;55412;51.350;17.056;2024-03-08T05:54:10;100971.00;;;-4.29;79.50
68433;BME280;55412;51.350;17.056;2024-03-08T05:56:37;100974.13;;;-4.20;79.23
68433;BME280;55412;51.350;17.056;2024-03-08T05:59:03;100973.34;;;-4.19;79.67
68433;BME280;55412;51.350;17.056;2024-03-08T06:01:29;100967.44;;;-4.06;79.62
68433;BME280;55412;51.350;17.056;2024-03-08T06:03:56;100972.44;;;-3.95;79.71
68433;BME280;55412;51.350;17.056;2024-03-08T06:06:23;100969.63;;;-3.86;79.37
68433;BME280;55412;51.350;17.056;2024-03-08T06:08:49;100976.84;;;-3.79;79.54
68433;BME280;55412;51.350;17.056;2024-03-08T06:11:16;100983.38;;;-3.69;79.93
68433;BME280;55412;51.350;17.056;2024-03-08T06:13:43;100984.97;;;-3.58;79.78
68433;BME280;55412;51.350;17.056;2024-03-08T06:16:09;100984.75;;;-3.48;79.88
68433;BME280;55412;51.350;17.056;2024-03-08T06:18:35;100994.72;;;-3.38;79.40
68433;BME280;55412;51.350;17.056;2024-03-08T06:21:05;100985.72;;;-3.33;79.46
68433;BME280;55412;51.350;17.056;2024-03-08T06:23:35;100982.00;;;-3.24;79.25
68433;BME280;55412;51.350;17.056;2024-03-08T06:26:07;100983.97;;;-3.20;79.15
68433;BME280;55412;51.350;17.056;2024-03-08T06:28:33;100990.47;;;-3.11;79.37
68433;BME280;55412;51.350;17.056;2024-03-08T06:31:00;100985.72;;;-3.06;79.12
68433;BME280;55412;51.350;17.056;2024-03-08T06:33:26;100986.44;;;-2.94;79.42
68433;BME280;55412;51.350;17.056;2024-03-08T06:35:53;100984.50;;;-2.85;79.41
68433;BME280;55412;51.350;17.056;2024-03-08T06:38:20;100984.16;;;-2.76;79.40
68433;BME280;55412;51.350;17.056;2024-03-08T06:40:46;100981.22;;;-2.69;79.19
68433;BME280;55412;51.350;17.056;2024-03-08T06:43:14;100980.09;;;-2.59;78.97
68433;BME280;55412;51.350;17.056;2024-03-08T06:45:44;100961.06;;;-2.66;79.26
68433;BME280;55412;51.350;17.056;2024-03-08T06:48:19;100982.59;;;-2.46;79.02
68433;BME280;55412;51.350;17.056;2024-03-08T06:50:46;100981.28;;;-2.39;79.11
68433;BME280;55412;51.350;17.056;2024-03-08T06:53:12;100979.91;;;-2.34;79.30
68433;BME280;55412;51.350;17.056;2024-03-08T06:55:39;100987.44;;;-2.21;79.24
68433;BME280;55412;51.350;17.056;2024-03-08T06:58:05;100986.25;;;-2.13;79.04
68433;BME280;55412;51.350;17.056;2024-03-08T07:00:32;100977.50;;;-2.03;78.95
68433;BME280;55412;51.350;17.056;2024-03-08T07:02:58;100978.00;;;-1.94;79.11
68433;BME280;55412;51.350;17.056;2024-03-08T07:05:31;100975.31;;;-1.82;79.15
68433;BME280;55412;51.350;17.056;2024-03-08T07:07:58;100969.84;;;-1.74;79.16
68433;BME280;55412;51.350;17.056;2024-03-08T07:10:24;100968.16;;;-1.58;79.44
68433;BME280;55412;51.350;17.056;2024-03-08T07:12:51;100968.22;;;-1.42;79.56
68433;BME280;55412;51.350;17.056;2024-03-08T07:15:18;100969.94;;;-1.26;79.71
68433;BME280;55412;51.350;17.056;2024-03-08T07:17:45;100974.19;;;-1.11;79.33
68433;BME280;55412;51.350;17.056;2024-03-08T07:20:15;100984.97;;;-1.00;78.91
68433;BME280;55412;51.350;17.056;2024-03-08T07:22:44;100979.75;;;-0.87;79.42
68433;BME280;55412;51.350;17.056;2024-03-08T07:25:16;100988.22;;;-0.71;78.94
68433;BME280;55412;51.350;17.056;2024-03-08T07:27:53;100983.03;;;-0.57;78.98
68433;BME280;55412;51.350;17.056;2024-03-08T07:30:25;100971.09;;;-0.41;78.79
68433;BME280;55412;51.350;17.056;2024-03-08T07:33:12;100966.75;;;-0.26;79.00
68433;BME280;55412;51.350;17.056;2024-03-08T07:35:38;100959.81;;;-0.12;78.99
68433;BME280;55412;51.350;17.056;2024-03-08T07:38:06;100969.16;;;0.05;79.45
68433;BME280;55412;51.350;17.056;2024-03-08T07:40:41;100969.03;;;0.20;78.99
68433;BME280;55412;51.350;17.056;2024-03-08T07:43:10;100968.03;;;0.34;79.20
68433;BME280;55412;51.350;17.056;2024-03-08T07:45:39;100967.78;;;0.46;78.99
68433;BME280;55412;51.350;17.056;2024-03-08T07:48:05;100973.44;;;0.58;78.71
68433;BME280;55412;51.350;17.056;2024-03-08T07:50:39;100979.06;;;0.69;78.49
68433;BME280;55412;51.350;17.056;2024-03-08T07:53:06;100977.09;;;0.81;78.73
68433;BME280;55412;51.350;17.056;2024-03-08T07:55:33;100972.53;;;0.93;78.72
68433;BME280;55412;51.350;17.056;2024-03-08T07:58:08;100976.47;;;1.04;78.64
68433;BME280;55412;51.350;17.056;2024-03-08T08:00:39;100972.72;;;1.16;78.11
68433;BME280;55412;51.350;17.056;2024-03-08T08:03:08;100966.47;;;1.28;78.05
68433;BME280;55412;51.350;17.056;2024-03-08T08:05:37;100975.59;;;1.41;78.15
68433;BME280;55412;51.350;17.056;2024-03-08T08:08:13;100966.84;;;1.55;78.37
68433;BME280;55412;51.350;17.056;2024-03-08T08:10:39;100957.88;;;1.65;77.95
68433;BME280;55412;51.350;17.056;2024-03-08T08:13:05;100956.63;;;1.76;78.04
68433;BME280;55412;51.350;17.056;2024-03-08T08:15:34;100957.91;;;1.86;78.21
68433;BME280;55412;51.350;17.056;2024-03-08T08:18:00;100956.75;;;1.99;78.13
68433;BME280;55412;51.350;17.056;2024-03-08T08:20:31;100951.94;;;2.06;78.18
68433;BME280;55412;51.350;17.056;2024-03-08T08:23:00;100946.44;;;2.18;77.82
68433;BME280;55412;51.350;17.056;2024-03-08T08:25:25;100952.63;;;2.23;77.74
68433;BME280;55412;51.350;17.056;2024-03-08T08:27:51;100940.81;;;2.27;78.08
68433;BME280;55412;51.350;17.056;2024-03-08T08:30:19;100950.63;;;2.37;78.07
68433;BME280;55412;51.350;17.056;2024-03-08T08:32:45;100943.09;;;2.41;77.59
68433;BME280;55412;51.350;17.056;2024-03-08T08:35:12;100947.59;;;2.47;77.59
68433;BME280;55412;51.350;17.056;2024-03-08T08:37:38;100943.66;;;2.55;77.82
68433;BME280;55412;51.350;17.056;2024-03-08T08:40:05;100943.09;;;2.62;77.86
68433;BME280;55412;51.350;17.056;2024-03-08T08:42:35;100939.25;;;2.73;77.77
68433;BME280;55412;51.350;17.056;2024-03-08T08:45:01;100944.63;;;2.80;77.85
68433;BME280;55412;51.350;17.056;2024-03-08T08:47:27;100941.41;;;2.85;77.81
68433;BME280;55412;51.350;17.056;2024-03-08T08:49:53;100928.78;;;2.90;77.56
68433;BME280;55412;51.350;17.056;2024-03-08T08:52:23;100940.19;;;2.98;77.45
68433;BME280;55412;51.350;17.056;2024-03-08T08:54:51;100930.16;;;3.04;77.27
68433;BME280;55412;51.350;17.056;2024-03-08T08:57:17;100935.53;;;3.10;77.16
68433;BME280;55412;51.350;17.056;2024-03-08T08:59:46;100934.09;;;3.18;77.50
68433;BME280;55412;51.350;17.056;2024-03-08T09:02:12;100935.16;;;3.23;77.22
68433;BME280;55412;51.350;17.056;2024-03-08T09:04:38;100928.63;;;3.31;77.40
68433;BME280;55412;51.350;17.056;2024-03-08T09:07:04;100932.38;;;3.41;77.21
68433;BME280;55412;51.350;17.056;2024-03-08T09:09:32;100918.94;;;3.48;77.33
68433;BME280;55412;51.350;17.056;2024-03-08T09:12:01;100922.47;;;3.52;77.05
68433;BME280;55412;51.350;17.056;2024-03-08T09:14:29;100921.94;;;3.60;77.11
68433;BME280;55412;51.350;17.056;2024-03-08T09:16:59;100922.22;;;3.68;77.17
68433;BME280;55412;51.350;17.056;2024-03-08T09:19:25;100920.00;;;3.79;77.14
68433;BME280;55412;51.350;17.056;2024-03-08T09:21:51;100908.69;;;3.74;76.75
68433;BME280;55412;51.350;17.056;2024-03-08T09:24:17;100895.84;;;3.74;76.35
68433;BME280;55412;51.350;17.056;2024-03-08T09:26:43;100910.56;;;3.78;76.53
68433;BME280;55412;51.350;17.056;2024-03-08T09:29:09;100910.75;;;3.84;76.70
68433;BME280;55412;51.350;17.056;2024-03-08T09:31:38;100905.94;;;3.93;76.58
68433;BME280;55412;51.350;17.056;2024-03-08T09:34:04;100913.06;;;4.02;76.70
68433;BME280;55412;51.350;17.056;2024-03-08T09:36:30;100915.78;;;4.06;76.36
68433;BME280;55412;51.350;17.056;2024-03-08T09:38:57;100914.28;;;4.13;76.18
68433;BME280;55412;51.350;17.056;2024-03-08T09:41:23;100898.19;;;4.19;76.21
68433;BME280;55412;51.350;17.056;2024-03-08T09:43:49;100911.34;;;4.28;75.91
68433;BME280;55412;51.350;17.056;2024-03-08T09:46:15;100898.47;;;4.26;75.39
68433;BME280;55412;51.350;17.056;2024-03-08T09:48:44;100906.34;;;4.32;75.91
68433;BME280;55412;51.350;17.056;2024-03-08T09:51:12;100875.47;;;4.31;75.74
68433;BME280;55412;51.350;17.056;2024-03-08T09:53:44;100893.84;;;4.43;75.65
68433;BME280;55412;51.350;17.056;2024-03-08T09:56:13;100886.22;;;4.46;75.17
68433;BME280;55412;51.350;17.056;2024-03-08T09:58:42;100896.66;;;4.51;75.25
68433;BME280;55412;51.350;17.056;2024-03-08T10:01:23;100881.41;;;4.57;75.58
68433;BME280;55412;51.350;17.056;2024-03-08T10:03:48;100872.84;;;4.56;75.09
68433;BME280;55412;51.350;17.056;2024-03-08T10:06:14;100878.22;;;4.64;74.49
68433;BME280;55412;51.350;17.056;2024-03-08T10:08:40;100877.44;;;4.68;74.82
68433;BME280;55412;51.350;17.056;2024-03-08T10:11:07;100877.59;;;4.72;75.10
68433;BME280;55412;51.350;17.056;2024-03-08T10:13:36;100872.53;;;4.76;75.06
68433;BME280;55412;51.350;17.056;2024-03-08T10:16:02;100867.72;;;4.86;75.23
68433;BME280;55412;51.350;17.056;2024-03-08T10:18:30;100861.00;;;4.91;75.08
68433;BME280;55412;51.350;17.056;2024-03-08T10:21:08;100854.25;;;4.95;74.53
68433;BME280;55412;51.350;17.056;2024-03-08T10:23:36;100857.75;;;4.98;74.25
68433;BME280;55412;51.350;17.056;2024-03-08T10:26:13;100861.31;;;5.02;73.94
68433;BME280;55412;51.350;17.056;2024-03-08T10:28:46;100857.09;;;5.06;73.98
68433;BME280;55412;51.350;17.056;2024-03-08T10:31:15;100857.97;;;5.06;74.55
68433;BME280;55412;51.350;17.056;2024-03-08T10:33:41;100860.66;;;5.09;73.67
68433;BME280;55412;51.350;17.056;2024-03-08T10:36:08;100866.84;;;5.16;74.25
68433;BME280;55412;51.350;17.056;2024-03-08T10:38:38;100868.72;;;5.21;74.37
68433;BME280;55412;51.350;17.056;2024-03-08T10:41:10;100863.78;;;5.29;74.16
68433;BME280;55412;51.350;17.056;2024-03-08T10:44:15;100863.88;;;5.34;73.66
68433;BME280;55412;51.350;17.056;2024-03-08T10:46:46;100864.03;;;5.38;73.24
68433;BME280;55412;51.350;17.056;2024-03-08T10:49:30;100851.16;;;5.38;73.67
68433;BME280;55412;51.350;17.056;2024-03-08T10:52:02;100852.22;;;5.46;72.87
68433;BME280;55412;51.350;17.056;2024-03-08T10:54:31;100855.66;;;5.47;73.07
68433;BME280;55412;51.350;17.056;2024-03-08T10:56:59;100858.25;;;5.47;73.17
68433;BME280;55412;51.350;17.056;2024-03-08T10:59:28;100844.63;;;5.51;73.25
68433;BME280;55412;51.350;17.056;2024-03-08T11:01:55;100843.84;;;5.55;73.22
68433;BME280;55412;51.350;17.056;2024-03-08T11:04:24;100841.41;;;5.60;73.06
68433;BME280;55412;51.350;17.056;2024-03-08T11:06:51;100845.81;;;5.65;72.69
68433;BME280;55412;51.350;17.056;2024-03-08T11:09:38;100832.25;;;5.71;72.79
68433;BME280;55412;51.350;17.056;2024-03-08T11:15:15;100831.50;;;5.75;72.59
68433;BME280;55412;51.350;17.056;2024-03-08T11:17:48;100831.50;;;5.75;71.72
68433;BME280;55412;51.350;17.056;2024-03-08T11:20:15;100822.97;;;5.77;71.88
68433;BME280;55412;51.350;17.056;2024-03-08T11:23:04;100822.25;;;5.83;72.25
68433;BME280;55412;51.350;17.056;2024-03-08T11:25:41;100822.28;;;5.85;72.07
68433;BME280;55412;51.350;17.056;2024-03-08T11:28:18;100813.69;;;5.84;71.46
68433;BME280;55412;51.350;17.056;2024-03-08T11:33:32;100808.75;;;5.92;71.52
68433;BME280;55412;51.350;17.056;2024-03-08T11:36:24;100802.78;;;5.94;71.27
68433;BME280;55412;51.350;17.056;2024-03-08T11:38:51;100801.19;;;5.99;70.89
68433;BME280;55412;51.350;17.056;2024-03-08T11:41:18;100792.66;;;6.02;71.36
68433;BME280;55412;51.350;17.056;2024-03-08T11:43:49;100794.44;;;6.04;70.78
68433;BME280;55412;51.350;17.056;2024-03-08T11:46:16;100790.19;;;6.06;70.88
68433;BME280;55412;51.350;17.056;2024-03-08T11:48:44;100785.09;;;6.09;70.51
68433;BME280;55412;51.350;17.056;2024-03-08T11:51:14;100780.09;;;6.16;70.76
68433;BME280;55412;51.350;17.056;2024-03-08T11:53:43;100775.88;;;6.18;70.00
68433;BME280;55412;51.350;17.056;2024-03-08T11:56:11;100764.75;;;6.20;70.22
68433;BME280;55412;51.350;17.056;2024-03-08T11:58:39;100765.59;;;6.21;70.64
68433;BME280;55412;51.350;17.056;2024-03-08T12:01:09;100758.78;;;6.23;69.82
68433;BME280;55412;51.350;17.056;2024-03-08T12:03:41;100751.16;;;6.27;70.47
68433;BME280;55412;51.350;17.056;2024-03-08T12:06:16;100744.31;;;6.29;70.36
68433;BME280;55412;51.350;17.056;2024-03-08T12:08:46;100749.59;;;6.35;69.51
68433;BME280;55412;51.350;17.056;2024-03-08T12:11:19;100748.75;;;6.36;69.77
68433;BME280;55412;51.350;17.056;2024-03-08T12:13:49;100751.38;;;6.38;68.96
68433;BME280;55412;51.350;17.056;2024-03-08T12:16:19;100741.09;;;6.40;69.47
68433;BME280;55412;51.350;17.056;2024-03-08T12:18:47;100747.16;;;6.42;68.97
68433;BME280;55412;51.350;17.056;2024-03-08T12:21:14;100744.63;;;6.45;69.43
68433;BME280;55412;51.350;17.056;2024-03-08T12:23:44;100742.97;;;6.47;69.14
68433;BME280;55412;51.350;17.056;2024-03-08T12:26:24;100737.84;;;6.48;69.35
68433;BME280;55412;51.350;17.056;2024-03-08T12:28:52;100740.44;;;6.50;69.03
68433;BME280;55412;51.350;17.056;2024-03-08T12:31:20;100731.94;;;6.54;68.81
68433;BME280;55412;51.350;17.056;2024-03-08T12:33:53;100736.28;;;6.56;68.84
68433;BME280;55412;51.350;17.056;2024-03-08T12:36:20;100728.63;;;6.61;68.88
68433;BME280;55412;51.350;17.056;2024-03-08T12:38:46;100718.34;;;6.62;68.69
68433;BME280;55412;51.350;17.056;2024-03-08T12:41:16;100720.94;;;6.62;68.92
68433;BME280;55412;51.350;17.056;2024-03-08T12:43:45;100708.94;;;6.66;68.83
68433;BME280;55412;51.350;17.056;2024-03-08T12:46:22;100721.94;;;6.69;68.51
68433;BME280;55412;51.350;17.056;2024-03-08T12:48:51;100706.44;;;6.69;68.61
68433;BME280;55412;51.350;17.056;2024-03-08T12:51:20;100708.19;;;6.70;67.99
68433;BME280;55412;51.350;17.056;2024-03-08T12:53:46;100708.22;;;6.73;68.14